Terminal Aerodrome Forecast
Issued by NWS

Home | Current Version | Previous Version | Graphics & Text | Print | Product List | Glossary On
Versions: 1 2 3 4 5 6 7 8 9 10 11 12 13 14 15 16 17 18 19 20 21 22 23 24 25 26 27
000
FTUS43 KDVN 230500
TAFCID
TAF
KCID 230520Z 2306/2406 VRB03KT 6SM BR VCTS BKN040CB
      TEMPO 2307/2310 3SM -TSRA BR BKN030CB
     FM231000 VRB02KT 2SM BR BKN015
     FM231400 13006KT 6SM BR VCTS BKN030CB
     FM231600 15007KT P6SM BKN050=

USA.gov is the U.S. government's official web portal to all federal, state and local government web resources and services.